Sachse, Texas
Current Conditions -  °F | °C
As of 5:55 PM on Friday 28 Nov 2014 (Local Time) from KF46 Reporting Station
Clear Clear  
Wind Chill: 64°   Ceiling: Unl
Heat Index: 64°   Visibility: 10mi
Dew Point: 50°   Wind: 16mph
Humidity: 60%   Direction: 190°S
Pressure: 30.03"   Gusts: 25mph
Location:  32.9674°N, 96.5785°W
Report Text: KF46 282355Z AUTO 19014G22KT 10SM CLR 18/10 A3003 RMK AO2 T01790100 10204 20169
Loading
Personal Weather Stations






























Interactive Weather Map New forecast layout! Learn more

10-Day Weather Forecast

Advertisements
Track Severe Weather on mobile